Latest Weather Observations for Luncheon Hill

IDT60801

Issued at 4:02 pm EDT Sunday 21 December 2014 (issued every 30 minutes, with the page automatically refreshed every 10 minutes)

About weather observations | Map of weather stations | Latest weather observations for TAS | Other Formats
Station Details ID: 091259 Name: LUNCHEON HILL (FORESTRY) Lat: -41.15 Lon: 145.15 Height: 344.0 m
Data from the previous 72 hours. | See also: Recent months at Luncheon Hill
Date/Time
EDT
Temp
°C
App
Temp
°C
Dew
Point
Rel
Hum
%
Delta-T
°C
Wind Press
QNH
hPa
Press
MSL
hPa
Rain
since 9 am
mm
Dir
 
Spd
km/h
Gust
km/h
Spd
kts
Gust
kts
21/04:00pm 19.5 15.7 11.3 59 4.6 W 22 35 12 19 - - 0.0
21/03:30pm 19.8 16.0 12.3 62 4.3 WNW 24 33 13 18 - - 0.0
21/03:00pm 20.5 18.1 13.9 66 3.9 WNW 19 33 10 18 - - 0.0
21/02:30pm 19.4 16.8 13.1 67 3.6 NNW 19 30 10 16 - - 0.0
21/02:00pm 18.4 15.2 13.0 71 3.1 NNW 22 30 12 16 - - 0.0
21/01:30pm 16.7 13.7 12.5 76 2.4 N 20 28 11 15 - - 0.0
21/01:00pm 15.4 11.9 12.2 81 1.8 N 22 30 12 16 - - 0.0
21/12:30pm 15.5 12.4 12.1 80 1.9 NNW 20 28 11 15 - - 0.0
21/12:00pm 15.3 12.1 11.3 77 2.2 NW 19 28 10 15 - - 0.0
21/11:30am 16.6 13.7 12.4 76 2.4 NW 19 24 10 13 - - 0.0
21/11:00am 16.9 14.6 11.6 71 2.9 WNW 15 22 8 12 - - 0.0
21/10:30am 16.3 14.0 10.4 68 3.2 NNW 13 20 7 11 - - 0.0
21/10:00am 15.2 13.4 9.6 69 2.9 N 9 15 5 8 - - 0.0
21/09:30am 14.8 13.0 9.6 71 2.7 N 9 19 5 10 - - 0.0
21/09:00am 13.8 12.0 9.5 75 2.2 N 9 13 5 7 - - 0.2
21/08:30am 13.0 11.4 8.9 76 2.1 NNW 7 13 4 7 - - 0.2
21/08:00am 12.5 12.0 7.8 73 2.3 CALM 0 0 0 0 - - 0.2
21/07:30am 11.7 11.3 8.4 80 1.7 CALM 0 0 0 0 - - 0.2
21/07:00am 10.7 9.2 8.5 86 1.1 E 6 7 3 4 - - 0.2
21/06:30am 9.6 9.0 8.8 95 0.4 E 2 6 1 3 - - 0.2
21/06:00am 8.7 6.2 8.3 97 0.2 SSE 11 11 6 6 - - 0.2
21/05:30am 8.0 4.5 7.4 96 0.3 SSW 15 20 8 11 - - 0.2
21/05:00am 9.2 6.7 8.0 92 0.6 SW 11 15 6 8 - - 0.2
21/04:30am 9.2 6.8 7.2 87 1.0 SSW 9 11 5 6 - - 0.2
21/04:00am 9.1 6.7 6.9 86 1.0 SSE 9 9 5 5 - - 0.2
21/03:30am 8.7 6.9 7.8 94 0.4 SE 7 11 4 6 - - 0.2
21/03:00am 8.7 6.6 8.3 97 0.2 SSE 9 13 5 7 - - 0.2
21/02:30am 8.7 7.0 8.4 98 0.1 SSE 7 9 4 5 - - 0.2
21/02:00am 8.7 6.6 8.4 98 0.1 S 9 11 5 6 - - 0.2
21/01:30am 8.4 5.5 8.0 97 0.2 S 13 13 7 7 - - 0.2
21/01:00am 8.5 5.6 8.1 97 0.2 S 13 15 7 8 - - 0.2
21/12:30am 8.9 6.0 8.3 96 0.3 S 13 15 7 8 - - 0.2
21/12:00am 8.8 5.9 8.2 96 0.3 S 13 15 7 8 - - 0.2
 
Date/Time
EDT
Temp
°C
App
Temp
°C
Dew
Point
Rel
Hum
%
Delta-T
°C
Wind Press
QNH
hPa
Press
MSL
hPa
Rain
since 9 am
mm
Dir
 
Spd
km/h
Gust
km/h
Spd
kts
Gust
kts
20/11:30pm 9.0 6.1 8.2 95 0.4 SSW 13 17 7 9 - - 0.2
20/11:00pm 9.3 6.1 8.4 94 0.4 SSW 15 19 8 10 - - 0.2
20/10:30pm 9.7 6.5 8.6 93 0.5 SSW 15 20 8 11 - - 0.2
20/10:00pm 9.9 6.3 8.3 90 0.8 SW 17 20 9 11 - - 0.2
20/09:30pm 10.2 6.6 8.3 88 0.9 SSW 17 20 9 11 - - 0.2
20/09:00pm 10.8 7.1 8.0 83 1.4 SSW 17 22 9 12 - - 0.2
20/08:30pm 11.9 8.2 7.8 76 2.0 SSW 17 26 9 14 - - 0.2
20/08:00pm 13.3 9.0 7.7 69 2.8 SSW 20 33 11 18 - - 0.2
20/07:30pm 14.0 9.4 8.0 67 3.0 SSW 22 33 12 18 - - 0.2
20/07:00pm 14.8 9.7 7.8 63 3.5 SW 24 37 13 20 - - 0.2
20/06:30pm 15.3 10.2 7.8 61 3.8 SSW 24 37 13 20 - - 0.2
20/06:00pm 15.8 11.8 9.0 64 3.6 SW 20 33 11 18 - - 0.2
20/05:30pm 16.3 12.0 9.3 63 3.7 SW 22 35 12 19 - - 0.2
20/05:00pm 16.9 13.2 10.1 64 3.7 SW 20 32 11 17 - - 0.2
20/04:30pm 15.6 11.7 9.3 66 3.3 SSW 20 33 11 18 - - 0.2
20/04:00pm 17.2 13.5 9.4 60 4.1 SW 19 37 10 20 - - 0.2
20/03:30pm 15.9 11.0 8.6 62 3.8 SW 24 41 13 22 - - 0.2
20/03:00pm 16.6 12.7 9.3 62 3.9 SW 20 39 11 21 - - 0.2
20/02:30pm 16.4 11.7 9.3 63 3.7 SW 24 37 13 20 - - 0.2
20/02:00pm 15.8 11.6 9.9 68 3.1 SW 22 41 12 22 - - 0.2
20/01:30pm 16.1 11.8 10.8 71 2.9 SW 24 37 13 20 - - 0.2
20/01:06pm 14.3 9.1 10.3 77 2.1 SW 28 48 15 26 - - 0.2
20/01:00pm 14.5 10.8 10.3 76 2.2 SW 20 37 11 20 - - 0.2
20/12:30pm 15.0 10.9 11.4 79 2.0 SW 24 43 13 23 - - 0.2
20/12:00pm 13.6 9.1 10.2 80 1.8 SW 24 43 13 23 - - 0.2
20/11:30am 13.7 10.6 11.7 88 1.1 SW 19 33 10 18 - - 0.2
20/11:00am 13.0 9.3 12.7 98 0.2 SW 24 37 13 20 - - 0.2
20/10:30am 12.6 8.8 12.4 99 0.1 SW 24 48 13 26 - - 0.2
20/10:00am 12.6 8.8 12.4 99 0.1 SW 24 37 13 20 - - 0.0
20/09:30am 12.6 9.6 12.4 99 0.1 WSW 20 33 11 18 - - 0.0
20/09:00am 12.4 9.3 12.2 99 0.1 WSW 20 33 11 18 - - 4.6
20/08:30am 12.1 8.9 11.9 99 0.1 WSW 20 35 11 19 - - 4.6
20/08:00am 12.1 9.5 11.9 99 0.1 W 17 30 9 16 - - 4.0
20/07:30am 11.6 8.4 11.4 99 0.1 W 19 33 10 18 - - 3.6
20/07:00am 11.4 8.2 11.2 99 0.1 W 19 28 10 15 - - 3.0
20/06:30am 11.2 8.7 11.0 99 0.1 W 15 32 8 17 - - 2.8
20/06:00am 11.1 7.6 10.9 99 0.1 W 20 33 11 18 - - 2.4
20/05:30am 10.9 7.9 10.7 99 0.1 W 17 24 9 13 - - 1.8
20/05:00am 10.7 7.1 10.5 99 0.1 WNW 20 33 11 18 - - 1.4
20/04:30am 10.7 7.3 10.5 99 0.1 W 19 33 10 18 - - 1.0
20/04:00am 10.5 6.8 10.3 99 0.1 W 20 33 11 18 - - 0.8
20/03:30am 10.6 7.5 10.4 99 0.1 WNW 17 26 9 14 - - 0.6
20/03:00am 10.5 7.4 10.3 99 0.1 WNW 17 24 9 13 - - 0.4
20/02:30am 10.4 6.9 10.2 99 0.1 WNW 19 35 10 19 - - 0.2
20/02:00am 10.1 6.5 9.8 98 0.2 WNW 19 28 10 15 - - 0.2
20/01:30am 10.0 6.7 9.4 96 0.3 WNW 17 20 9 11 - - 0.0
20/01:00am 10.0 7.0 9.1 94 0.5 WNW 15 19 8 10 - - 0.0
20/12:30am 10.0 7.3 8.9 93 0.6 W 13 19 7 10 - - 0.0
20/12:00am 9.9 6.8 8.7 92 0.6 W 15 20 8 11 - - 0.0
 
Date/Time
EDT
Temp
°C
App
Temp
°C
Dew
Point
Rel
Hum
%
Delta-T
°C
Wind Press
QNH
hPa
Press
MSL
hPa
Rain
since 9 am
mm
Dir
 
Spd
km/h
Gust
km/h
Spd
kts
Gust
kts
19/11:30pm 9.7 6.8 8.3 91 0.7 W 13 20 7 11 - - 0.0
19/11:00pm 9.5 6.9 7.8 89 0.8 WNW 11 15 6 8 - - 0.0
19/10:30pm 9.7 7.1 7.8 88 0.9 WNW 11 15 6 8 - - 0.0
19/10:00pm 9.6 6.9 7.4 86 1.1 W 11 15 6 8 - - 0.0
19/09:30pm 9.8 7.0 7.1 83 1.3 W 11 15 6 8 - - 0.0
19/09:00pm 10.0 7.6 6.9 81 1.5 WSW 9 19 5 10 - - 0.0
19/08:30pm 10.1 6.8 6.4 78 1.8 WSW 13 22 7 12 - - 0.0
19/08:00pm 10.3 7.0 6.5 77 1.8 WSW 13 22 7 12 - - 0.0
19/07:30pm 10.4 7.3 7.1 80 1.6 WSW 13 20 7 11 - - 0.0
19/07:00pm 10.7 6.2 5.9 72 2.3 WSW 19 35 10 19 - - 0.0
19/06:30pm 11.3 6.5 5.6 68 2.7 SW 20 35 11 19 - - 0.0
19/06:00pm 11.7 7.6 6.4 70 2.6 SW 17 28 9 15 - - 0.0
19/05:30pm 12.9 8.3 6.3 64 3.2 SW 20 37 11 20 - - 0.0
19/05:00pm 12.4 7.6 5.8 64 3.2 WSW 20 33 11 18 - - 0.0
19/04:30pm 13.6 9.3 7.8 68 2.9 SW 20 33 11 18 - - 0.0
19/04:00pm 12.4 8.0 6.5 67 2.9 SW 19 30 10 16 - - 0.0
19/03:30pm 13.9 9.9 6.5 61 3.6 WSW 17 30 9 16 - - 0.0
19/03:00pm 13.2 8.6 5.6 60 3.6 SW 19 35 10 19 - - 0.0
19/02:30pm 14.4 9.5 5.0 53 4.5 WSW 20 32 11 17 - - 0.0
19/02:00pm 14.7 9.9 4.4 50 4.9 SW 19 35 10 19 - - 0.0
19/01:30pm 14.6 9.8 4.6 51 4.7 SW 19 37 10 20 - - 0.0
19/01:00pm 14.4 8.7 4.7 52 4.6 SW 24 37 13 20 - - 0.0
19/12:30pm 14.5 9.1 4.5 51 4.7 SSW 22 39 12 21 - - 0.0
19/12:00pm 14.1 8.5 5.5 56 4.1 SW 24 39 13 21 - - 0.0
19/11:30am 14.0 8.9 5.9 58 3.9 SSW 22 37 12 20 - - 0.0
19/11:02am 12.8 6.4 5.2 60 3.6 SSW 28 46 15 25 - - 0.0
19/11:00am 13.7 7.4 5.8 59 3.8 SSW 28 44 15 24 - - 0.0
19/10:30am 13.0 7.2 6.1 63 3.3 SW 26 39 14 21 - - 0.0
19/10:00am 11.2 6.8 6.5 73 2.3 SW 19 28 10 15 - - 0.0
19/09:30am 10.7 6.8 7.0 78 1.8 SSW 17 28 9 15 - - 0.0
19/09:00am 9.5 5.2 6.9 84 1.2 SSW 19 28 10 15 - - 5.4
19/08:30am 9.5 6.0 7.4 87 1.0 SSW 15 28 8 15 - - 5.4
19/08:00am 9.1 5.8 8.0 93 0.5 SSW 15 20 8 11 - - 5.4
19/07:30am 8.2 5.2 7.6 96 0.3 SSW 13 17 7 9 - - 5.4
19/07:00am 7.4 3.9 7.1 98 0.1 SSW 15 19 8 10 - - 5.4
19/06:30am 6.3 2.6 6.2 99 0.0 SSW 15 17 8 9 - - 5.4
19/06:00am 5.7 1.4 5.4 98 0.1 SSW 17 20 9 11 - - 5.4
19/05:30am 5.9 1.3 5.6 98 0.1 SSW 19 24 10 13 - - 5.4
19/05:00am 6.4 2.7 6.1 98 0.1 SSW 15 20 8 11 - - 5.4
19/04:30am 6.5 2.4 6.2 98 0.1 SSW 17 22 9 12 - - 5.4
19/04:00am 6.1 1.9 5.7 97 0.2 SSW 17 20 9 11 - - 5.2
19/03:30am 6.4 2.3 6.0 97 0.2 SSW 17 20 9 11 - - 5.2
19/03:00am 7.0 2.6 6.6 97 0.2 SSW 19 28 10 15 - - 5.2
19/02:30am 6.6 3.2 6.0 96 0.3 SW 13 17 7 9 - - 5.0
19/02:00am 6.9 2.8 6.3 96 0.3 SSW 17 26 9 14 - - 5.0
19/01:30am 7.1 3.0 6.2 94 0.4 SW 17 24 9 13 - - 5.0
19/01:00am 7.5 3.4 6.3 92 0.6 SW 17 32 9 17 - - 4.8
19/12:30am 7.0 2.5 5.9 93 0.5 SSW 19 20 10 11 - - 4.8
19/12:00am 7.1 2.9 5.9 92 0.6 SSW 17 24 9 13 - - 4.8
 
Date/Time
EDT
Temp
°C
App
Temp
°C
Dew
Point
Rel
Hum
%
Delta-T
°C
Wind Press
QNH
hPa
Press
MSL
hPa
Rain
since 9 am
mm
Dir
 
Spd
km/h
Gust
km/h
Spd
kts
Gust
kts
18/11:30pm 7.6 3.9 6.4 92 0.6 WSW 15 22 8 12 - - 4.8
18/11:00pm 8.0 3.7 6.8 92 0.6 SW 19 26 10 14 - - 4.8
18/10:30pm 8.1 4.1 6.6 90 0.7 SW 17 26 9 14 - - 4.8
18/10:00pm 8.8 4.5 6.8 87 0.9 SW 19 28 10 15 - - 4.8
18/09:30pm 8.9 4.9 6.7 86 1.0 SW 17 22 9 12 - - 4.8
18/09:00pm 9.3 5.1 7.4 88 0.9 SW 19 26 10 14 - - 4.8
18/08:30pm 9.4 5.5 7.2 86 1.1 SW 17 24 9 13 - - 4.8
18/08:00pm 10.3 5.4 6.8 79 1.7 SW 22 39 12 21 - - 4.8
18/07:30pm 10.7 7.0 7.8 82 1.4 SW 17 24 9 13 - - 4.8
18/07:00pm 11.7 6.7 8.2 79 1.8 SW 24 43 13 23 - - 4.8
18/06:30pm 11.5 6.8 7.8 78 1.8 SW 22 37 12 20 - - 4.8
18/06:00pm 12.5 7.5 8.2 75 2.2 SW 24 43 13 23 - - 4.8
18/05:30pm 11.8 8.2 9.7 87 1.1 SW 19 33 10 18 - - 4.8
18/05:00pm 12.2 8.5 10.1 87 1.1 W 20 32 11 17 - - 4.6
18/04:30pm 11.6 8.8 11.3 98 0.2 WSW 17 33 9 18 - - 4.6

Other Formats:

Comma delimited format used in spreadsheet applications
http://www.bom.gov.au/fwo/IDT60801/IDT60801.95956.axf

JavaScript Object Notation format (JSON) in row-major order
http://www.bom.gov.au/fwo/IDT60801/IDT60801.95956.json